createdAt,value
2022-11-16T00:01:43.555Z,11.77
2022-11-16T00:04:12.828Z,10.38
2022-11-16T00:06:41.252Z,15.00
2022-11-16T00:09:23.105Z,13.00
2022-11-16T00:11:56.277Z,14.02
2022-11-16T00:14:26.961Z,12.10
2022-11-16T00:16:54.638Z,12.43
2022-11-16T00:19:23.793Z,14.40
2022-11-16T00:21:51.622Z,15.05
2022-11-16T00:24:22.599Z,13.73
2022-11-16T00:26:54.072Z,10.65
2022-11-16T00:29:24.179Z,12.40
2022-11-16T00:31:53.596Z,13.70
2022-11-16T00:34:22.437Z,18.52
2022-11-16T00:36:50.329Z,14.43
2022-11-16T00:39:18.988Z,20.30
2022-11-16T00:41:48.277Z,16.08
2022-11-16T00:44:17.913Z,15.63
2022-11-16T00:46:46.271Z,14.60
2022-11-16T00:49:14.031Z,18.75
2022-11-16T00:51:42.124Z,16.67
2022-11-16T00:54:10.685Z,14.90
2022-11-16T00:56:40.675Z,16.63
2022-11-16T00:59:08.623Z,15.25
2022-11-16T01:01:38.205Z,15.63
2022-11-16T01:04:07.361Z,17.90
2022-11-16T01:06:34.976Z,15.77
2022-11-16T01:09:02.782Z,17.38
2022-11-16T01:11:47.896Z,14.55
2022-11-16T01:14:16.516Z,15.82
2022-11-16T01:16:45.888Z,15.05
2022-11-16T01:19:13.581Z,18.20
2022-11-16T01:21:41.310Z,17.48
2022-11-16T01:24:09.226Z,16.40
2022-11-16T01:26:37.521Z,18.15
2022-11-16T01:29:05.233Z,17.25
2022-11-16T01:31:37.287Z,17.73
2022-11-16T01:34:07.198Z,16.85
2022-11-16T01:36:36.608Z,15.98
2022-11-16T01:39:05.877Z,13.02
2022-11-16T01:41:45.506Z,17.40
2022-11-16T01:44:50.474Z,13.55
2022-11-16T01:47:19.711Z,17.58
2022-11-16T01:49:54.128Z,15.07
2022-11-16T01:52:31.909Z,17.20
2022-11-16T01:55:00.588Z,14.90
2022-11-16T01:57:36.656Z,14.88
2022-11-16T02:00:11.567Z,16.20
2022-11-16T02:02:48.521Z,19.20
2022-11-16T02:05:50.999Z,17.35
2022-11-16T02:08:52.937Z,20.20
2022-11-16T02:11:38.629Z,22.52
2022-11-16T02:14:22.342Z,21.33
2022-11-16T02:16:59.529Z,18.02
2022-11-16T02:20:01.133Z,17.00
2022-11-16T02:22:48.001Z,18.33
2022-11-16T02:25:22.384Z,17.58
2022-11-16T02:28:09.871Z,18.63
2022-11-16T02:30:43.998Z,22.00
2022-11-16T02:33:16.169Z,15.90
2022-11-16T02:35:47.874Z,19.02
2022-11-16T02:38:20.513Z,22.70
2022-11-16T02:40:54.772Z,23.52
2022-11-16T02:43:31.281Z,20.02
2022-11-16T02:46:04.893Z,19.75
2022-11-16T02:48:37.459Z,20.25
2022-11-16T02:51:07.454Z,22.00
2022-11-16T02:53:42.400Z,18.77
2022-11-16T02:56:13.880Z,19.35
2022-11-16T02:58:42.400Z,22.45
2022-11-16T03:01:16.145Z,20.75
2022-11-16T03:03:50.848Z,21.45
2022-11-16T03:06:23.196Z,20.35
2022-11-16T03:08:58.923Z,19.25
2022-11-16T03:11:48.029Z,21.08
2022-11-16T03:14:19.810Z,19.13
2022-11-16T03:16:52.444Z,19.25
2022-11-16T03:19:26.805Z,21.27
2022-11-16T03:22:00.849Z,18.48
2022-11-16T03:24:28.971Z,25.20
2022-11-16T03:27:04.240Z,21.63
2022-11-16T03:29:36.547Z,24.05
2022-11-16T03:32:16.977Z,18.27
2022-11-16T03:34:52.963Z,20.73
2022-11-16T03:37:22.808Z,19.52
2022-11-16T03:39:53.046Z,22.60
2022-11-16T03:42:23.361Z,22.95
2022-11-16T03:44:51.780Z,21.00
2022-11-16T03:47:20.798Z,21.95
2022-11-16T03:49:48.852Z,22.27
2022-11-16T03:52:20.093Z,22.20
2022-11-16T03:54:49.924Z,20.75
2022-11-16T03:57:18.755Z,23.30
2022-11-16T03:59:52.604Z,23.77
2022-11-16T04:02:21.963Z,24.80
2022-11-16T04:05:09.057Z,23.15
2022-11-16T04:07:54.800Z,21.55
2022-11-16T04:10:40.214Z,22.27
2022-11-16T04:13:30.032Z,22.75
2022-11-16T04:16:15.690Z,27.27
2022-11-16T04:19:04.009Z,21.05
2022-11-16T04:21:55.105Z,21.02
2022-11-16T04:24:29.857Z,24.77
2022-11-16T04:27:19.011Z,22.25
2022-11-16T04:29:46.977Z,24.15
2022-11-16T04:32:34.742Z,26.02
2022-11-16T04:35:21.260Z,23.17
2022-11-16T04:37:52.413Z,23.25
2022-11-16T04:40:29.329Z,22.50
2022-11-16T04:42:59.421Z,23.08
2022-11-16T04:45:48.320Z,22.13
2022-11-16T04:48:20.741Z,19.48
2022-11-16T04:50:53.305Z,21.25
2022-11-16T04:53:22.580Z,19.33
2022-11-16T04:56:00.651Z,18.67
2022-11-16T04:58:29.070Z,39.83
2022-11-16T05:00:56.807Z,26.85
2022-11-16T05:03:24.894Z,22.55
2022-11-16T05:05:53.958Z,23.83
2022-11-16T05:08:21.864Z,22.05
2022-11-16T05:10:53.106Z,24.45
2022-11-16T05:13:20.979Z,21.70
2022-11-16T05:15:50.719Z,20.67
2022-11-16T05:18:18.741Z,28.65
2022-11-16T05:21:00.508Z,21.20
2022-11-16T05:23:49.695Z,21.63
2022-11-16T05:26:21.039Z,22.08
2022-11-16T05:28:49.267Z,21.95
2022-11-16T05:31:16.956Z,20.65
2022-11-16T05:33:45.041Z,20.95
2022-11-16T05:36:13.978Z,20.75
2022-11-16T05:38:43.153Z,25.10
2022-11-16T05:41:10.881Z,21.80
2022-11-16T05:43:38.729Z,21.17
2022-11-16T05:46:25.316Z,19.45
2022-11-16T05:48:55.191Z,21.38
2022-11-16T05:51:23.120Z,20.65
2022-11-16T05:53:53.894Z,21.50
2022-11-16T05:56:23.783Z,19.75
2022-11-16T05:58:53.737Z,19.77
2022-11-16T06:01:22.021Z,19.48
2022-11-16T06:03:51.229Z,25.90
2022-11-16T06:06:19.836Z,26.13
2022-11-16T06:08:48.746Z,20.67
2022-11-16T06:11:22.926Z,22.85
2022-11-16T06:13:50.919Z,19.60
2022-11-16T06:16:18.716Z,21.95
2022-11-16T06:18:48.693Z,20.10
2022-11-16T06:21:19.836Z,18.75
2022-11-16T06:23:47.861Z,20.40
2022-11-16T06:26:15.617Z,20.25
2022-11-16T06:28:44.803Z,20.92
2022-11-16T06:31:13.034Z,21.55
2022-11-16T06:33:42.912Z,22.70
2022-11-16T06:36:17.642Z,19.50
2022-11-16T06:38:45.837Z,19.65
2022-11-16T06:41:14.568Z,16.52
2022-11-16T06:43:47.781Z,20.50
2022-11-16T06:46:18.375Z,20.45
2022-11-16T06:48:46.164Z,17.60
2022-11-16T06:51:15.325Z,19.90
2022-11-16T06:53:43.740Z,18.50
2022-11-16T06:56:14.838Z,17.95
2022-11-16T06:58:53.002Z,19.27
2022-11-16T07:01:21.390Z,17.80
2022-11-16T07:03:50.257Z,17.52
2022-11-16T07:06:17.894Z,19.15
2022-11-16T07:08:47.052Z,18.13
2022-11-16T07:11:20.323Z,19.38
2022-11-16T07:13:49.804Z,16.73
2022-11-16T07:16:17.836Z,82.25
2022-11-16T07:18:53.204Z,29.35
2022-11-16T07:21:20.873Z,18.45
2022-11-16T07:23:49.043Z,20.80
2022-11-16T07:26:20.494Z,17.15
2022-11-16T07:28:55.046Z,20.00
2022-11-16T07:31:23.769Z,17.60
2022-11-16T07:34:12.067Z,17.50
2022-11-16T07:36:48.406Z,18.92
2022-11-16T07:39:17.574Z,17.10
2022-11-16T07:41:46.981Z,16.80
2022-11-16T07:44:26.556Z,15.35
2022-11-16T07:47:09.293Z,14.18
2022-11-16T07:49:38.230Z,15.23
2022-11-16T07:52:13.785Z,16.02
2022-11-16T07:54:52.911Z,16.48
2022-11-16T07:57:25.338Z,23.30
2022-11-16T07:59:56.431Z,163.57
2022-11-16T08:02:24.500Z,135.32
2022-11-16T08:04:54.010Z,33.60
2022-11-16T08:07:26.155Z,18.77
2022-11-16T08:09:57.015Z,19.45
2022-11-16T08:12:25.218Z,13.65
2022-11-16T08:14:55.761Z,16.05
2022-11-16T08:17:24.365Z,14.45
2022-11-16T08:19:54.686Z,11.57
2022-11-16T08:22:22.957Z,12.55
2022-11-16T08:24:50.714Z,9.98
2022-11-16T08:27:18.753Z,11.13
2022-11-16T08:29:51.118Z,8.82
2022-11-16T08:32:20.335Z,9.30
2022-11-16T08:34:48.088Z,8.40
2022-11-16T08:37:16.389Z,7.15
2022-11-16T08:39:45.966Z,10.27
2022-11-16T08:42:13.950Z,4.30
2022-11-16T08:44:46.165Z,5.43
2022-11-16T08:47:15.975Z,7.38
2022-11-16T08:50:04.118Z,3.97
2022-11-16T08:52:31.982Z,6.80
2022-11-16T08:55:01.047Z,4.07
2022-11-16T08:57:29.301Z,5.47
2022-11-16T09:00:00.377Z,4.90
2022-11-16T09:02:28.173Z,5.00
2022-11-16T09:04:55.755Z,4.53
2022-11-16T09:07:25.369Z,8.40
2022-11-16T09:09:53.068Z,5.40
2022-11-16T09:12:20.934Z,7.45
2022-11-16T09:14:48.832Z,6.97
2022-11-16T09:17:21.719Z,8.38
2022-11-16T09:19:51.000Z,9.48
2022-11-16T09:22:18.927Z,9.85
2022-11-16T09:24:48.445Z,9.55
2022-11-16T09:27:16.906Z,9.43
2022-11-16T09:29:44.576Z,7.88
2022-11-16T09:32:12.586Z,11.43
2022-11-16T09:34:40.238Z,8.77
2022-11-16T09:37:08.542Z,8.50
2022-11-16T09:39:36.165Z,11.82
2022-11-16T09:42:22.669Z,7.30
2022-11-16T09:45:00.750Z,11.48
2022-11-16T09:47:50.141Z,12.77
2022-11-16T09:50:37.626Z,7.25
2022-11-16T09:53:20.094Z,9.88
2022-11-16T09:55:51.995Z,7.18
2022-11-16T09:58:28.602Z,6.95
2022-11-16T10:01:01.367Z,8.68
2022-11-16T10:03:33.131Z,12.00
2022-11-16T10:06:04.469Z,7.63
2022-11-16T10:08:44.040Z,6.43
2022-11-16T10:11:45.429Z,6.75
2022-11-16T10:14:29.717Z,9.30
2022-11-16T10:17:05.093Z,6.38
2022-11-16T10:19:45.253Z,8.40
2022-11-16T10:22:29.975Z,9.60
2022-11-16T10:24:59.214Z,8.25
2022-11-16T10:27:38.522Z,7.75
2022-11-16T10:30:14.019Z,6.47
2022-11-16T10:32:48.431Z,10.73
2022-11-16T10:35:23.911Z,7.95
2022-11-16T10:37:52.867Z,4.53
2022-11-16T10:40:24.925Z,7.13
2022-11-16T10:43:01.370Z,6.68
2022-11-16T10:45:36.845Z,10.98
2022-11-16T10:48:15.589Z,7.60
2022-11-16T10:50:47.100Z,9.30
2022-11-16T10:53:16.338Z,9.80
2022-11-16T10:55:44.205Z,6.32
2022-11-16T10:58:11.979Z,9.80
2022-11-16T11:00:47.165Z,8.68
2022-11-16T11:03:14.908Z,11.43
2022-11-16T11:05:53.075Z,10.07
2022-11-16T11:08:30.385Z,13.80
2022-11-16T11:11:01.978Z,8.18
2022-11-16T11:13:30.364Z,8.88
2022-11-16T11:16:18.657Z,10.13
2022-11-16T11:18:46.361Z,8.57
2022-11-16T11:21:19.556Z,10.32
2022-11-16T11:23:50.668Z,9.85
2022-11-16T11:26:36.460Z,8.40
2022-11-16T11:29:17.991Z,7.65
2022-11-16T11:31:50.097Z,7.93
2022-11-16T11:34:22.096Z,6.88
2022-11-16T11:36:53.792Z,11.48
2022-11-16T11:39:34.557Z,5.78
2022-11-16T11:42:23.315Z,7.07
2022-11-16T11:44:57.428Z,5.78
2022-11-16T11:50:37.253Z,9.15
2022-11-16T11:53:08.825Z,9.05
2022-11-16T11:55:37.123Z,7.18
2022-11-16T11:58:06.700Z,8.40
2022-11-16T12:00:43.209Z,8.63
2022-11-16T12:03:34.733Z,7.55
2022-11-16T12:06:12.449Z,5.90
2022-11-16T12:08:58.123Z,7.15
2022-11-16T12:11:34.575Z,6.55
2022-11-16T12:14:18.370Z,7.95
2022-11-16T12:16:56.169Z,5.60
2022-11-16T12:19:42.037Z,5.28
2022-11-16T12:22:27.013Z,8.80
2022-11-16T12:25:10.648Z,6.60
2022-11-16T12:27:48.942Z,7.40
2022-11-16T12:30:20.933Z,6.13
2022-11-16T12:33:05.660Z,6.43
2022-11-16T12:35:48.397Z,5.78
2022-11-16T12:38:37.268Z,4.55
2022-11-16T12:41:40.380Z,4.75
2022-11-16T12:44:11.797Z,7.78
2022-11-16T12:46:50.805Z,8.30
2022-11-16T12:49:34.605Z,7.43
2022-11-16T12:52:20.814Z,5.45
2022-11-16T12:58:01.458Z,5.68
2022-11-16T13:00:35.316Z,4.90
2022-11-16T13:03:15.680Z,7.30
2022-11-16T13:05:57.435Z,6.55
2022-11-16T13:08:48.115Z,12.43
2022-11-16T13:11:21.779Z,9.85
2022-11-16T13:13:54.184Z,6.30
2022-11-16T13:16:23.779Z,5.22
2022-11-16T13:18:53.178Z,7.88
2022-11-16T13:21:34.758Z,5.82
2022-11-16T13:24:21.102Z,8.73
2022-11-16T13:26:55.442Z,6.20
2022-11-16T13:29:35.566Z,6.38
2022-11-16T13:32:10.035Z,4.97
2022-11-16T13:34:39.938Z,6.95
2022-11-16T13:37:40.901Z,6.78
2022-11-16T13:40:31.591Z,7.53
2022-11-16T13:43:05.895Z,4.65
2022-11-16T13:45:37.566Z,3.45
2022-11-16T13:48:18.100Z,5.93
2022-11-16T13:50:50.257Z,6.88
2022-11-16T13:54:25.153Z,6.82
2022-11-16T13:56:15.931Z,7.15
2022-11-16T13:58:47.301Z,8.52
2022-11-16T14:01:16.898Z,6.05
2022-11-16T14:03:46.101Z,8.73
2022-11-16T14:06:57.112Z,7.55
2022-11-16T14:09:47.741Z,9.70
2022-11-16T14:12:55.434Z,8.98
2022-11-16T14:15:26.693Z,6.43
2022-11-16T14:17:57.901Z,12.85
2022-11-16T14:20:35.418Z,9.45
2022-11-16T14:23:13.737Z,9.73
2022-11-16T14:25:48.341Z,14.05
2022-11-16T14:28:32.194Z,7.85
2022-11-16T14:31:15.523Z,7.30
2022-11-16T14:33:44.012Z,6.10
2022-11-16T14:36:12.328Z,6.80
2022-11-16T14:38:43.019Z,9.13
2022-11-16T14:41:20.110Z,5.78
2022-11-16T14:43:52.706Z,6.22
2022-11-16T14:46:26.265Z,8.43
2022-11-16T14:48:57.129Z,7.07
2022-11-16T14:51:30.220Z,8.68
2022-11-16T14:54:01.630Z,5.90
2022-11-16T14:56:29.310Z,6.93
2022-11-16T14:58:58.866Z,5.13
2022-11-16T15:01:30.555Z,5.30
2022-11-16T15:04:02.250Z,9.30
2022-11-16T15:06:33.695Z,8.68
2022-11-16T15:09:04.828Z,5.63
2022-11-16T15:11:51.885Z,8.75
2022-11-16T15:14:22.321Z,6.90
2022-11-16T15:16:53.437Z,5.65
2022-11-16T15:19:21.801Z,10.77
2022-11-16T15:21:54.735Z,6.40
2022-11-16T15:24:30.520Z,4.35
2022-11-16T15:27:11.550Z,7.30
2022-11-16T15:29:39.892Z,7.35
2022-11-16T15:32:16.561Z,5.30
2022-11-16T15:34:54.152Z,8.30
2022-11-16T15:37:28.938Z,8.27
2022-11-16T15:39:58.081Z,5.57
2022-11-16T15:42:27.796Z,6.88
2022-11-16T15:44:56.664Z,10.15
2022-11-16T15:47:27.049Z,6.25
2022-11-16T15:49:55.254Z,7.38
2022-11-16T15:52:42.189Z,7.57
2022-11-16T15:55:23.578Z,6.65
2022-11-16T15:58:03.099Z,8.85
2022-11-16T16:00:32.508Z,9.55
2022-11-16T16:03:07.702Z,5.75
2022-11-16T16:05:37.809Z,17.30
2022-11-16T16:08:07.044Z,10.02
2022-11-16T16:10:35.025Z,7.75
2022-11-16T16:13:04.004Z,6.13
2022-11-16T16:15:36.046Z,8.27
2022-11-16T16:18:13.445Z,8.43
2022-11-16T16:20:49.698Z,5.45
2022-11-16T16:23:26.536Z,5.93
2022-11-16T16:25:54.293Z,8.55
2022-11-16T16:28:21.988Z,15.30
2022-11-16T16:30:51.980Z,17.58
2022-11-16T16:33:22.768Z,20.05
2022-11-16T16:35:51.097Z,22.98
2022-11-16T16:38:18.689Z,19.70
2022-11-16T16:40:46.389Z,23.60
2022-11-16T16:43:14.498Z,23.73
2022-11-16T16:45:43.806Z,15.98
2022-11-16T16:48:12.705Z,13.43
2022-11-16T16:50:42.248Z,8.88
2022-11-16T16:53:12.153Z,10.82
2022-11-16T16:55:39.906Z,9.23
2022-11-16T16:58:07.971Z,13.40
2022-11-16T17:00:35.673Z,11.05
2022-11-16T17:03:03.386Z,8.70
2022-11-16T17:05:32.865Z,7.88
2022-11-16T17:08:02.356Z,8.73
2022-11-16T17:10:29.974Z,5.80
2022-11-16T17:12:58.393Z,10.35
2022-11-16T17:15:26.257Z,8.23
2022-11-16T17:17:53.897Z,11.52
2022-11-16T17:20:21.541Z,10.20
2022-11-16T17:22:49.257Z,11.95
2022-11-16T17:25:18.327Z,10.20
2022-11-16T17:27:45.976Z,11.75
2022-11-16T17:30:15.067Z,10.02
2022-11-16T17:32:42.700Z,7.90
2022-11-16T17:35:10.709Z,15.73
2022-11-16T17:37:38.425Z,18.05
2022-11-16T17:40:06.941Z,12.80
2022-11-16T17:42:36.589Z,9.80
2022-11-16T17:45:04.972Z,11.50
2022-11-16T17:47:33.488Z,10.57
2022-11-16T17:50:01.736Z,11.75
2022-11-16T17:52:29.391Z,19.85
2022-11-16T17:54:56.994Z,15.60
2022-11-16T17:57:24.972Z,14.07
2022-11-16T17:59:53.969Z,12.23
2022-11-16T18:02:21.613Z,12.02
2022-11-16T18:04:51.197Z,12.82
2022-11-16T18:07:19.368Z,15.30
2022-11-16T18:09:47.121Z,15.55
2022-11-16T18:12:14.690Z,16.73
2022-11-16T18:14:42.595Z,14.10
2022-11-16T18:17:11.621Z,10.68
2022-11-16T18:19:39.260Z,9.70
2022-11-16T18:22:06.902Z,14.18
2022-11-16T18:24:34.506Z,10.02
2022-11-16T18:27:02.537Z,10.95
2022-11-16T18:29:30.180Z,11.25
2022-11-16T18:31:57.853Z,10.32
2022-11-16T18:34:26.874Z,6.88
2022-11-16T18:36:54.563Z,11.15
2022-11-16T18:39:22.160Z,6.93
2022-11-16T18:41:55.111Z,13.05
2022-11-16T18:44:23.445Z,11.43
2022-11-16T18:46:51.129Z,9.60
2022-11-16T18:49:19.034Z,10.30
2022-11-16T18:51:48.114Z,9.40
2022-11-16T18:54:15.716Z,13.20
2022-11-16T18:56:43.336Z,13.50
2022-11-16T18:59:10.989Z,8.55
2022-11-16T19:01:38.694Z,13.25
2022-11-16T19:04:07.506Z,10.50
2022-11-16T19:06:35.201Z,10.75
2022-11-16T19:09:06.213Z,18.73
2022-11-16T19:11:33.814Z,10.30
2022-11-16T19:14:03.800Z,10.65
2022-11-16T19:16:32.656Z,9.13
2022-11-16T19:19:01.235Z,9.07
2022-11-16T19:21:29.018Z,10.43
2022-11-16T19:23:57.390Z,14.93
2022-11-16T19:26:28.147Z,13.70
2022-11-16T19:28:56.283Z,9.95
2022-11-16T19:31:26.834Z,9.32
2022-11-16T19:33:55.989Z,9.25
2022-11-16T19:36:24.711Z,9.32
2022-11-16T19:38:53.138Z,12.02
2022-11-16T19:41:22.649Z,11.23
2022-11-16T19:43:56.941Z,9.05
2022-11-16T19:46:25.361Z,7.10
2022-11-16T19:48:53.984Z,10.48
2022-11-16T19:51:23.432Z,6.85
2022-11-16T19:53:51.411Z,7.20
2022-11-16T19:56:20.522Z,11.35
2022-11-16T19:58:48.598Z,8.02
2022-11-16T20:01:19.547Z,8.05
2022-11-16T20:03:49.312Z,9.88
2022-11-16T20:06:19.066Z,8.35
2022-11-16T20:08:49.229Z,7.30
2022-11-16T20:11:20.340Z,11.32
2022-11-16T20:13:48.226Z,9.20
2022-11-16T20:16:18.923Z,9.32
2022-11-16T20:18:47.458Z,10.88
2022-11-16T20:21:19.784Z,9.00
2022-11-16T20:23:47.460Z,7.13
2022-11-16T20:26:15.756Z,11.00
2022-11-16T20:28:44.489Z,8.32
2022-11-16T20:31:14.582Z,10.70
2022-11-16T20:33:44.889Z,10.85
2022-11-16T20:36:13.352Z,14.40
2022-11-16T20:38:41.234Z,11.43
2022-11-16T20:41:11.248Z,12.27
2022-11-16T20:43:42.532Z,9.60
2022-11-16T20:46:12.625Z,11.63
2022-11-16T20:48:43.412Z,10.07
2022-11-16T20:51:14.778Z,7.40
2022-11-16T20:53:42.539Z,8.52
2022-11-16T20:56:12.292Z,11.20
2022-11-16T20:58:40.668Z,9.45
2022-11-16T21:01:11.384Z,11.70
2022-11-16T21:03:40.266Z,8.20
2022-11-16T21:06:09.546Z,10.82
2022-11-16T21:08:38.780Z,9.88
2022-11-16T21:11:11.961Z,8.40
2022-11-16T21:14:00.146Z,8.65
2022-11-16T21:16:28.182Z,8.80
2022-11-16T21:18:56.153Z,9.95
2022-11-16T21:21:26.728Z,9.85
2022-11-16T21:23:55.064Z,8.95
2022-11-16T21:26:25.751Z,10.00
2022-11-16T21:28:54.499Z,10.45
2022-11-16T21:31:25.437Z,9.10
2022-11-16T21:33:53.770Z,8.55
2022-11-16T21:36:23.183Z,9.32
2022-11-16T21:38:53.169Z,9.13
2022-11-16T21:41:23.121Z,11.73
2022-11-16T21:43:50.925Z,7.93
2022-11-16T21:46:20.846Z,7.07
2022-11-16T21:48:48.884Z,9.40
2022-11-16T21:51:18.187Z,9.73
2022-11-16T21:53:46.467Z,8.95
2022-11-16T21:56:16.968Z,7.43
2022-11-16T21:58:45.129Z,9.35
2022-11-16T22:01:15.993Z,11.43
2022-11-16T22:03:44.761Z,20.25
2022-11-16T22:06:32.350Z,9.63
2022-11-16T22:09:00.254Z,10.20
2022-11-16T22:11:29.431Z,14.88
2022-11-16T22:13:57.591Z,11.90
2022-11-16T22:16:25.362Z,7.57
2022-11-16T22:18:53.403Z,7.10
2022-11-16T22:21:21.106Z,8.70
2022-11-16T22:23:48.699Z,20.58
2022-11-16T22:26:16.482Z,16.30
2022-11-16T22:28:45.874Z,10.38
2022-11-16T22:31:15.295Z,9.07
2022-11-16T22:33:43.115Z,8.50
2022-11-16T22:36:11.837Z,7.65
2022-11-16T22:38:39.536Z,8.68
2022-11-16T22:41:07.421Z,5.07
2022-11-16T22:43:35.729Z,11.35
2022-11-16T22:46:06.576Z,6.22
2022-11-16T22:48:35.911Z,8.68
2022-11-16T22:51:06.540Z,8.40
2022-11-16T22:53:34.863Z,8.23
2022-11-16T22:56:10.457Z,5.63
2022-11-16T22:58:39.509Z,6.95
2022-11-16T23:01:09.864Z,9.27
2022-11-16T23:03:38.341Z,9.57
2022-11-16T23:06:06.788Z,6.35
2022-11-16T23:08:35.741Z,10.18
2022-11-16T23:11:24.009Z,8.02
2022-11-16T23:14:10.877Z,5.05
2022-11-16T23:16:40.998Z,11.75
2022-11-16T23:19:29.791Z,3.83
2022-11-16T23:22:15.433Z,4.70
2022-11-16T23:25:01.400Z,8.20
2022-11-16T23:27:33.112Z,5.15
2022-11-16T23:30:06.442Z,5.38
2022-11-16T23:32:38.290Z,6.78
2022-11-16T23:35:06.682Z,7.63
2022-11-16T23:37:34.516Z,8.50
2022-11-16T23:40:02.153Z,10.95
2022-11-16T23:42:47.312Z,5.85
2022-11-16T23:45:15.327Z,5.35
2022-11-16T23:47:44.234Z,7.85
2022-11-16T23:50:11.851Z,4.65
2022-11-16T23:52:39.500Z,7.75
2022-11-16T23:55:08.362Z,6.00
2022-11-16T23:57:36.103Z,6.57
